• Join FlightAware (Why Join?)
  • Login
  • US Flag 
08:00AM EST


 

Airport Tracker/Info


-or-


 

Live Flight TrackerFlight Track Log ✈ EJA396 ✈ 28-Jul-2013 ✈ KBFI - KSUN

Flight Track Log - Related Links

Times and Time Zones

All times are in EDT time to prevent confusion due to time zone crossing. See the EJA396 flight status page for this flight to view local times or setup timezone preferences in your user account.

Time Position Orientation Groundspeed Altitude Reporting Facility
EDT Latitude Longitude Course Direction KTS MPH feet Rate Location/Type
06:24PM 47.5136 -122.2867 141° Southeast 178 205 1,400  Level Seattle Center
06:25PM 47.4886 -122.2567 141° Southeast 183 211 3,400 2,760 Climbing Seattle Center
06:26PM 47.4356 -122.2108 150° Southeast 230 265 6,000 1,800 Climbing Seattle Center
06:27PM 47.3572 -122.1992 174° South 282 325 7,100 1,920 Climbing Seattle Center
06:28PM 47.2794 -122.1761 169° South 285 328 10,000 3,660 Climbing Seattle Center
06:29PM 47.2025 -122.1539 169° South 262 302 14,600 3,780 Climbing Seattle Center
06:30PM 47.1253 -122.1306 168° South 282 325 17,700 2,760 Climbing Seattle Center
06:31PM 47.0547 -122.0672 149° Southeast 318 366 20,300 2,640 Climbing Seattle Center
06:32PM 46.9775 -121.9906 146° Southeast 334 384 23,200 2,760 Climbing Seattle Center
06:33PM 46.9242 -121.8636 122° Southeast 363 418 26,000 2,760 Climbing Seattle Center
06:34PM 46.8611 -121.7092 121° Southeast 374 430 28,900 2,460 Climbing Seattle Center
06:35PM 46.8131 -121.5928 121° Southeast 380 437 31,100 2,280 Climbing Seattle Center
06:36PM 46.7586 -121.4619 121° Southeast 379 436 33,600 2,400 Climbing Seattle Center
06:37PM 46.6947 -121.3103 122° Southeast 370 426 36,000 1,620 Climbing Seattle Center
06:38PM 46.6428 -121.1836 121° Southeast 366 421 37,000 480 Climbing Seattle Center
06:39PM 46.5839 -121.0450 122° Southeast 400 460 37,000  Level Seattle Center
06:40PM 46.5208 -120.8961 122° Southeast 430 495 37,000  Level Seattle Center
06:41PM 46.4542 -120.7414 122° Southeast 450 518 37,000  Level Seattle Center
06:42PM 46.3864 -120.5814 122° Southeast 464 534 37,000  Level Seattle Center
06:43PM 46.3197 -120.4264 122° Southeast 456 525 37,000  Level Seattle Center
06:44PM 46.2542 -120.2772 122° Southeast 443 510 37,000  Level Seattle Center
06:45PM 46.1889 -120.1264 122° Southeast 444 511 37,000  Level Seattle Center
06:46PM 46.1228 -119.9767 122° Southeast 442 509 37,000  Level Seattle Center
06:47PM 46.0581 -119.8303 122° Southeast 437 503 37,000  Level Seattle Center
06:48PM 45.9928 -119.6847 123° Southeast 433 498 37,000  Level Seattle Center
06:50PM 45.9156 -119.5108 123° Southeast 429 494 37,000  Level Seattle Center
06:51PM 45.8506 -119.3675 123° Southeast 429 494 37,000  Level Seattle Center
06:52PM 45.7861 -119.2225 122° Southeast 430 495 37,000  Level Seattle Center
06:53PM 45.7208 -119.0786 123° Southeast 430 495 37,000  Level Seattle Center
06:54PM 45.6572 -118.9372 123° Southeast 425 489 37,000  Level Seattle Center
06:55PM 45.5914 -118.7947 123° Southeast 427 491 37,000  Level Seattle Center
06:56PM 45.5258 -118.6522 123° Southeast 429 494 37,000  Level Seattle Center
06:57PM 45.4603 -118.5108 123° Southeast 428 493 37,000  Level Seattle Center
06:58PM 45.3947 -118.3711 124° Southeast 426 490 37,000  Level Seattle Center
06:59PM 45.3281 -118.2294 124° Southeast 429 494 37,000  Level Seattle Center
07:00PM 45.2631 -118.0908 124° Southeast 424 488 37,000  Level Seattle Center
07:01PM 45.1981 -117.9503 123° Southeast 427 491 37,000  Level Seattle Center
07:02PM 45.1242 -117.7969 124° Southeast 430 495 37,000  Level Seattle Center
07:03PM 45.0400 -117.6178 124° Southeast 428 493 37,000  Level Salt Lake Center
07:04PM 44.9758 -117.4864 125° Southeast 426 490 37,000  Level Salt Lake Center
07:05PM 44.9117 -117.3522 124° Southeast 430 495 37,000  Level Salt Lake Center
07:06PM 44.8372 -117.1981 124° Southeast 427 491 37,000  Level Salt Lake Center
07:07PM 44.7833 -117.0872 124° Southeast 428 493 37,000  Level Seattle Center
07:08PM 44.7078 -116.9336 125° Southeast 427 491 37,000  Level Seattle Center
07:09PM 44.6439 -116.8036 125° Southeast 425 489 37,000  Level Seattle Center
07:10PM 44.5811 -116.6744 124° Southeast 421 484 37,000  Level Seattle Center
07:11PM 44.5067 -116.5242 125° Southeast 421 484 37,000  Level Seattle Center
07:12PM 44.4428 -116.3972 125° Southeast 420 483 37,000  Level Seattle Center
07:13PM 44.3672 -116.2500 126° Southeast 424 488 37,000  Level Seattle Center
07:14PM 44.2839 -116.0781 124° Southeast 426 490 37,000 -60 Level Salt Lake Center
07:15PM 44.2200 -115.9503 125° Southeast 422 486 36,900 -1,020 Descending Salt Lake Center
07:16PM 44.1400 -115.7967 126° Southeast 437 503 35,000 -1,740 Descending Salt Lake Center
07:17PM 44.0725 -115.6633 125° Southeast 439 505 33,400 -1,980 Descending Salt Lake Center
07:18PM 44.0033 -115.5278 125° Southeast 448 516 31,000 -2,580 Descending Salt Lake Center
07:19PM 43.9200 -115.3675 126° Southeast 460 529 28,200 -2,580 Descending Salt Lake Center
07:20PM 43.8472 -115.2264 126° Southeast 470 541 25,700 -2,640 Descending Salt Lake Center
07:21PM 43.7658 -115.0692 126° Southeast 451 519 22,900 -2,580 Descending Salt Lake Center
07:22PM 43.6983 -114.9397 126° Southeast 435 501 20,500 -2,520 Descending Salt Lake Center
07:23PM 43.6214 -114.7936 126° Southeast 426 490 17,800 -2,400 Descending Salt Lake Center
07:24PM 43.5592 -114.6775 126° Southeast 401 461 15,700 -1,920 Descending Salt Lake Center
07:26PM 43.5081 -114.5797 126° Southeast 346 398 13,900 -1,740 Descending Salt Lake Center
07:27PM 43.4606 -114.4883 126° Southeast 323 372 12,200 -1,680 Descending Salt Lake Center
07:29PM 43.5038 -114.2956 126° Southeast  Level Estimated
07:36PM 43.5038 -114.2956 North  Level Estimated
07:37PM 43.5038 -114.2956 North  Level Estimated
07:38PM 43.5038 -114.2956 North  Level Estimated